sensor_id;sensor_type;location;lat;lon;timestamp;P1;durP1;ratioP1;P2;durP2;ratioP2
12145;SDS011;6136;47.032;15.398;2022-11-18T00:02:25;26.20;;;13.30;;
12145;SDS011;6136;47.032;15.398;2022-11-18T00:04:54;21.83;;;13.73;;
12145;SDS011;6136;47.032;15.398;2022-11-18T00:07:22;26.27;;;12.77;;
12145;SDS011;6136;47.032;15.398;2022-11-18T00:09:50;21.23;;;12.73;;
12145;SDS011;6136;47.032;15.398;2022-11-18T00:12:18;21.60;;;12.83;;
12145;SDS011;6136;47.032;15.398;2022-11-18T00:15:05;22.83;;;13.53;;
12145;SDS011;6136;47.032;15.398;2022-11-18T00:17:34;25.23;;;14.53;;
12145;SDS011;6136;47.032;15.398;2022-11-18T00:20:02;24.83;;;13.93;;
12145;SDS011;6136;47.032;15.398;2022-11-18T00:22:30;29.13;;;13.80;;
12145;SDS011;6136;47.032;15.398;2022-11-18T00:24:59;25.97;;;13.60;;
12145;SDS011;6136;47.032;15.398;2022-11-18T00:27:28;24.07;;;14.33;;
12145;SDS011;6136;47.032;15.398;2022-11-18T00:29:57;23.33;;;13.47;;
12145;SDS011;6136;47.032;15.398;2022-11-18T00:32:27;24.27;;;13.73;;
12145;SDS011;6136;47.032;15.398;2022-11-18T00:34:55;27.23;;;14.20;;
12145;SDS011;6136;47.032;15.398;2022-11-18T00:37:23;25.63;;;13.00;;
12145;SDS011;6136;47.032;15.398;2022-11-18T00:39:51;29.07;;;14.10;;
12145;SDS011;6136;47.032;15.398;2022-11-18T00:42:19;25.30;;;14.23;;
12145;SDS011;6136;47.032;15.398;2022-11-18T00:45:20;26.37;;;13.80;;
12145;SDS011;6136;47.032;15.398;2022-11-18T00:47:50;26.20;;;13.77;;
12145;SDS011;6136;47.032;15.398;2022-11-18T00:50:19;26.80;;;14.00;;
12145;SDS011;6136;47.032;15.398;2022-11-18T00:52:47;25.80;;;13.50;;
12145;SDS011;6136;47.032;15.398;2022-11-18T00:55:15;29.67;;;13.87;;
12145;SDS011;6136;47.032;15.398;2022-11-18T00:57:43;26.40;;;13.47;;
12145;SDS011;6136;47.032;15.398;2022-11-18T01:00:11;29.03;;;13.50;;
12145;SDS011;6136;47.032;15.398;2022-11-18T01:02:40;26.77;;;13.30;;
12145;SDS011;6136;47.032;15.398;2022-11-18T01:05:09;24.73;;;13.57;;
12145;SDS011;6136;47.032;15.398;2022-11-18T01:07:37;28.20;;;13.77;;
12145;SDS011;6136;47.032;15.398;2022-11-18T01:10:06;22.27;;;12.73;;
12145;SDS011;6136;47.032;15.398;2022-11-18T01:12:34;21.63;;;12.67;;
12145;SDS011;6136;47.032;15.398;2022-11-18T01:15:20;25.93;;;13.60;;
12145;SDS011;6136;47.032;15.398;2022-11-18T01:17:48;21.83;;;13.20;;
12145;SDS011;6136;47.032;15.398;2022-11-18T01:20:17;22.37;;;11.97;;
12145;SDS011;6136;47.032;15.398;2022-11-18T01:22:45;22.87;;;13.13;;
12145;SDS011;6136;47.032;15.398;2022-11-18T01:25:14;23.77;;;12.43;;
12145;SDS011;6136;47.032;15.398;2022-11-18T01:27:42;20.13;;;12.03;;
12145;SDS011;6136;47.032;15.398;2022-11-18T01:30:10;23.30;;;12.80;;
12145;SDS011;6136;47.032;15.398;2022-11-18T01:32:39;26.13;;;13.53;;
12145;SDS011;6136;47.032;15.398;2022-11-18T01:35:07;20.20;;;10.37;;
12145;SDS011;6136;47.032;15.398;2022-11-18T01:37:37;20.53;;;12.17;;
12145;SDS011;6136;47.032;15.398;2022-11-18T01:40:06;23.53;;;12.53;;
12145;SDS011;6136;47.032;15.398;2022-11-18T01:42:36;23.97;;;12.40;;
12145;SDS011;6136;47.032;15.398;2022-11-18T01:45:07;22.80;;;12.17;;
12145;SDS011;6136;47.032;15.398;2022-11-18T01:47:47;20.90;;;12.80;;
12145;SDS011;6136;47.032;15.398;2022-11-18T01:50:18;20.03;;;12.47;;
12145;SDS011;6136;47.032;15.398;2022-11-18T01:52:49;21.67;;;11.37;;
12145;SDS011;6136;47.032;15.398;2022-11-18T01:55:24;23.60;;;12.20;;
12145;SDS011;6136;47.032;15.398;2022-11-18T01:57:57;25.20;;;13.87;;
12145;SDS011;6136;47.032;15.398;2022-11-18T02:00:30;19.70;;;11.73;;
12145;SDS011;6136;47.032;15.398;2022-11-18T02:02:59;26.93;;;12.97;;
12145;SDS011;6136;47.032;15.398;2022-11-18T02:05:28;23.47;;;11.87;;
12145;SDS011;6136;47.032;15.398;2022-11-18T02:08:00;21.40;;;12.13;;
12145;SDS011;6136;47.032;15.398;2022-11-18T02:10:29;23.97;;;11.87;;
12145;SDS011;6136;47.032;15.398;2022-11-18T02:12:58;21.67;;;11.43;;
12145;SDS011;6136;47.032;15.398;2022-11-18T02:15:32;19.93;;;10.90;;
12145;SDS011;6136;47.032;15.398;2022-11-18T02:18:10;17.27;;;10.70;;
12145;SDS011;6136;47.032;15.398;2022-11-18T02:20:45;15.87;;;10.40;;
12145;SDS011;6136;47.032;15.398;2022-11-18T02:29:25;15.43;;;9.67;;
12145;SDS011;6136;47.032;15.398;2022-11-18T02:31:57;17.20;;;10.50;;
12145;SDS011;6136;47.032;15.398;2022-11-18T02:34:32;18.30;;;10.63;;
12145;SDS011;6136;47.032;15.398;2022-11-18T02:37:07;18.77;;;10.83;;
12145;SDS011;6136;47.032;15.398;2022-11-18T02:39:43;21.47;;;10.53;;
12145;SDS011;6136;47.032;15.398;2022-11-18T02:42:14;16.87;;;10.17;;
12145;SDS011;6136;47.032;15.398;2022-11-18T02:44:46;16.43;;;10.10;;
12145;SDS011;6136;47.032;15.398;2022-11-18T02:47:19;14.67;;;9.13;;
12145;SDS011;6136;47.032;15.398;2022-11-18T02:49:50;20.80;;;10.97;;
12145;SDS011;6136;47.032;15.398;2022-11-18T02:52:21;19.87;;;10.77;;
12145;SDS011;6136;47.032;15.398;2022-11-18T02:54:51;21.63;;;11.17;;
12145;SDS011;6136;47.032;15.398;2022-11-18T02:57:22;17.70;;;10.03;;
12145;SDS011;6136;47.032;15.398;2022-11-18T02:59:54;17.37;;;9.93;;
12145;SDS011;6136;47.032;15.398;2022-11-18T03:02:22;21.60;;;10.03;;
12145;SDS011;6136;47.032;15.398;2022-11-18T03:04:50;16.50;;;10.00;;
12145;SDS011;6136;47.032;15.398;2022-11-18T03:07:24;19.57;;;11.10;;
12145;SDS011;6136;47.032;15.398;2022-11-18T03:09:56;19.87;;;10.77;;
12145;SDS011;6136;47.032;15.398;2022-11-18T03:12:29;20.87;;;10.87;;
12145;SDS011;6136;47.032;15.398;2022-11-18T03:15:05;18.47;;;10.80;;
12145;SDS011;6136;47.032;15.398;2022-11-18T03:17:43;18.03;;;10.80;;
12145;SDS011;6136;47.032;15.398;2022-11-18T03:20:18;18.10;;;10.27;;
12145;SDS011;6136;47.032;15.398;2022-11-18T03:22:52;15.10;;;9.73;;
12145;SDS011;6136;47.032;15.398;2022-11-18T03:25:26;19.67;;;10.40;;
12145;SDS011;6136;47.032;15.398;2022-11-18T03:27:59;16.47;;;9.57;;
12145;SDS011;6136;47.032;15.398;2022-11-18T03:30:35;19.53;;;11.80;;
12145;SDS011;6136;47.032;15.398;2022-11-18T03:33:08;16.33;;;9.40;;
12145;SDS011;6136;47.032;15.398;2022-11-18T03:35:39;19.47;;;11.40;;
12145;SDS011;6136;47.032;15.398;2022-11-18T03:38:12;18.47;;;11.17;;
12145;SDS011;6136;47.032;15.398;2022-11-18T03:40:45;18.17;;;11.10;;
12145;SDS011;6136;47.032;15.398;2022-11-18T03:43:17;21.87;;;11.17;;
12145;SDS011;6136;47.032;15.398;2022-11-18T03:45:50;20.67;;;11.47;;
12145;SDS011;6136;47.032;15.398;2022-11-18T03:48:24;21.80;;;11.30;;
12145;SDS011;6136;47.032;15.398;2022-11-18T03:50:55;22.03;;;11.93;;
12145;SDS011;6136;47.032;15.398;2022-11-18T03:53:26;23.20;;;11.53;;
12145;SDS011;6136;47.032;15.398;2022-11-18T03:56:00;20.93;;;11.23;;
12145;SDS011;6136;47.032;15.398;2022-11-18T03:58:37;18.53;;;10.60;;
12145;SDS011;6136;47.032;15.398;2022-11-18T04:01:16;21.37;;;11.67;;
12145;SDS011;6136;47.032;15.398;2022-11-18T04:03:48;21.83;;;11.03;;
12145;SDS011;6136;47.032;15.398;2022-11-18T04:06:19;18.00;;;10.87;;
12145;SDS011;6136;47.032;15.398;2022-11-18T04:08:53;22.83;;;11.73;;
12145;SDS011;6136;47.032;15.398;2022-11-18T04:11:24;22.50;;;12.00;;
12145;SDS011;6136;47.032;15.398;2022-11-18T04:14:12;22.60;;;12.47;;
12145;SDS011;6136;47.032;15.398;2022-11-18T04:16:47;23.53;;;12.00;;
12145;SDS011;6136;47.032;15.398;2022-11-18T04:19:17;24.73;;;12.67;;
12145;SDS011;6136;47.032;15.398;2022-11-18T04:21:47;23.37;;;11.67;;
12145;SDS011;6136;47.032;15.398;2022-11-18T04:24:15;19.73;;;12.10;;
12145;SDS011;6136;47.032;15.398;2022-11-18T04:26:43;23.03;;;11.80;;
12145;SDS011;6136;47.032;15.398;2022-11-18T04:29:11;22.20;;;11.53;;
12145;SDS011;6136;47.032;15.398;2022-11-18T04:31:40;18.70;;;10.67;;
12145;SDS011;6136;47.032;15.398;2022-11-18T04:34:09;16.40;;;10.13;;
12145;SDS011;6136;47.032;15.398;2022-11-18T04:36:38;16.13;;;9.53;;
12145;SDS011;6136;47.032;15.398;2022-11-18T04:39:06;16.03;;;10.30;;
12145;SDS011;6136;47.032;15.398;2022-11-18T04:41:34;16.73;;;9.43;;
12145;SDS011;6136;47.032;15.398;2022-11-18T04:44:20;17.60;;;10.93;;
12145;SDS011;6136;47.032;15.398;2022-11-18T04:46:48;12.93;;;8.63;;
12145;SDS011;6136;47.032;15.398;2022-11-18T04:49:18;16.53;;;10.17;;
12145;SDS011;6136;47.032;15.398;2022-11-18T04:51:46;20.20;;;10.67;;
12145;SDS011;6136;47.032;15.398;2022-11-18T04:54:15;18.43;;;10.20;;
12145;SDS011;6136;47.032;15.398;2022-11-18T04:56:44;16.03;;;10.53;;
12145;SDS011;6136;47.032;15.398;2022-11-18T04:59:15;16.03;;;9.60;;
12145;SDS011;6136;47.032;15.398;2022-11-18T05:01:46;16.63;;;9.80;;
12145;SDS011;6136;47.032;15.398;2022-11-18T05:04:15;20.97;;;11.60;;
12145;SDS011;6136;47.032;15.398;2022-11-18T05:06:46;20.80;;;11.37;;
12145;SDS011;6136;47.032;15.398;2022-11-18T05:09:15;16.73;;;9.47;;
12145;SDS011;6136;47.032;15.398;2022-11-18T05:11:44;22.67;;;11.13;;
12145;SDS011;6136;47.032;15.398;2022-11-18T05:14:29;21.17;;;11.20;;
12145;SDS011;6136;47.032;15.398;2022-11-18T05:17:12;20.30;;;10.47;;
12145;SDS011;6136;47.032;15.398;2022-11-18T05:19:41;17.10;;;10.83;;
12145;SDS011;6136;47.032;15.398;2022-11-18T05:22:09;17.73;;;10.03;;
12145;SDS011;6136;47.032;15.398;2022-11-18T05:24:37;17.43;;;9.30;;
12145;SDS011;6136;47.032;15.398;2022-11-18T05:27:06;15.60;;;9.87;;
12145;SDS011;6136;47.032;15.398;2022-11-18T05:29:34;16.03;;;9.23;;
12145;SDS011;6136;47.032;15.398;2022-11-18T05:32:02;15.70;;;8.77;;
12145;SDS011;6136;47.032;15.398;2022-11-18T05:34:31;14.80;;;8.80;;
12145;SDS011;6136;47.032;15.398;2022-11-18T05:37:00;13.03;;;8.70;;
12145;SDS011;6136;47.032;15.398;2022-11-18T05:39:28;13.80;;;8.23;;
12145;SDS011;6136;47.032;15.398;2022-11-18T05:41:58;14.70;;;8.40;;
12145;SDS011;6136;47.032;15.398;2022-11-18T05:44:43;14.23;;;8.17;;
12145;SDS011;6136;47.032;15.398;2022-11-18T05:47:12;16.77;;;9.03;;
12145;SDS011;6136;47.032;15.398;2022-11-18T05:49:40;12.47;;;8.80;;
12145;SDS011;6136;47.032;15.398;2022-11-18T05:52:09;12.80;;;7.80;;
12145;SDS011;6136;47.032;15.398;2022-11-18T05:54:38;16.33;;;8.83;;
12145;SDS011;6136;47.032;15.398;2022-11-18T05:57:11;16.57;;;9.13;;
12145;SDS011;6136;47.032;15.398;2022-11-18T05:59:39;14.37;;;8.67;;
12145;SDS011;6136;47.032;15.398;2022-11-18T06:02:09;13.23;;;8.40;;
12145;SDS011;6136;47.032;15.398;2022-11-18T06:04:42;14.53;;;9.10;;
12145;SDS011;6136;47.032;15.398;2022-11-18T06:07:15;16.67;;;9.43;;
12145;SDS011;6136;47.032;15.398;2022-11-18T06:09:48;14.87;;;9.40;;
12145;SDS011;6136;47.032;15.398;2022-11-18T06:12:24;20.07;;;12.53;;
12145;SDS011;6136;47.032;15.398;2022-11-18T06:14:58;15.40;;;10.23;;
12145;SDS011;6136;47.032;15.398;2022-11-18T06:17:30;17.53;;;10.30;;
12145;SDS011;6136;47.032;15.398;2022-11-18T06:20:07;17.70;;;9.57;;
12145;SDS011;6136;47.032;15.398;2022-11-18T06:22:37;19.63;;;10.33;;
12145;SDS011;6136;47.032;15.398;2022-11-18T06:25:11;17.37;;;10.40;;
12145;SDS011;6136;47.032;15.398;2022-11-18T06:27:39;19.40;;;11.97;;
12145;SDS011;6136;47.032;15.398;2022-11-18T06:30:09;20.80;;;11.70;;
12145;SDS011;6136;47.032;15.398;2022-11-18T06:32:38;20.07;;;12.70;;
12145;SDS011;6136;47.032;15.398;2022-11-18T06:35:06;20.87;;;12.17;;
12145;SDS011;6136;47.032;15.398;2022-11-18T06:37:35;18.30;;;11.10;;
12145;SDS011;6136;47.032;15.398;2022-11-18T06:40:05;18.17;;;10.27;;
12145;SDS011;6136;47.032;15.398;2022-11-18T06:42:34;24.53;;;13.87;;
12145;SDS011;6136;47.032;15.398;2022-11-18T06:45:19;20.13;;;12.10;;
12145;SDS011;6136;47.032;15.398;2022-11-18T06:47:48;20.37;;;11.70;;
12145;SDS011;6136;47.032;15.398;2022-11-18T06:50:16;20.73;;;11.30;;
12145;SDS011;6136;47.032;15.398;2022-11-18T06:52:44;22.53;;;11.10;;
12145;SDS011;6136;47.032;15.398;2022-11-18T06:55:14;22.07;;;11.70;;
12145;SDS011;6136;47.032;15.398;2022-11-18T06:57:42;18.70;;;10.90;;
12145;SDS011;6136;47.032;15.398;2022-11-18T07:00:11;19.40;;;10.93;;
12145;SDS011;6136;47.032;15.398;2022-11-18T07:02:40;18.40;;;10.80;;
12145;SDS011;6136;47.032;15.398;2022-11-18T07:05:08;21.03;;;11.57;;
12145;SDS011;6136;47.032;15.398;2022-11-18T07:07:36;20.30;;;11.97;;
12145;SDS011;6136;47.032;15.398;2022-11-18T07:10:07;19.73;;;10.60;;
12145;SDS011;6136;47.032;15.398;2022-11-18T07:12:37;19.43;;;11.00;;
12145;SDS011;6136;47.032;15.398;2022-11-18T07:15:06;17.43;;;11.20;;
12145;SDS011;6136;47.032;15.398;2022-11-18T07:17:35;23.57;;;11.87;;
12145;SDS011;6136;47.032;15.398;2022-11-18T07:20:04;24.80;;;11.60;;
12145;SDS011;6136;47.032;15.398;2022-11-18T07:22:32;18.70;;;10.57;;
12145;SDS011;6136;47.032;15.398;2022-11-18T07:25:00;20.27;;;11.10;;
12145;SDS011;6136;47.032;15.398;2022-11-18T07:27:29;21.57;;;12.10;;
12145;SDS011;6136;47.032;15.398;2022-11-18T07:29:58;18.97;;;11.50;;
12145;SDS011;6136;47.032;15.398;2022-11-18T07:32:26;20.40;;;12.03;;
12145;SDS011;6136;47.032;15.398;2022-11-18T07:34:54;23.10;;;11.53;;
12145;SDS011;6136;47.032;15.398;2022-11-18T07:37:22;16.63;;;10.57;;
12145;SDS011;6136;47.032;15.398;2022-11-18T07:39:51;16.20;;;10.00;;
12145;SDS011;6136;47.032;15.398;2022-11-18T07:42:19;17.73;;;10.67;;
12145;SDS011;6136;47.032;15.398;2022-11-18T07:44:47;19.70;;;10.30;;
12145;SDS011;6136;47.032;15.398;2022-11-18T07:47:16;18.67;;;10.67;;
12145;SDS011;6136;47.032;15.398;2022-11-18T07:49:44;22.77;;;11.60;;
12145;SDS011;6136;47.032;15.398;2022-11-18T07:52:13;21.27;;;11.60;;
12145;SDS011;6136;47.032;15.398;2022-11-18T07:54:41;18.03;;;10.53;;
12145;SDS011;6136;47.032;15.398;2022-11-18T07:57:09;16.67;;;10.67;;
12145;SDS011;6136;47.032;15.398;2022-11-18T07:59:37;20.23;;;10.47;;
12145;SDS011;6136;47.032;15.398;2022-11-18T08:02:05;19.23;;;11.77;;
12145;SDS011;6136;47.032;15.398;2022-11-18T08:04:35;21.50;;;11.97;;
12145;SDS011;6136;47.032;15.398;2022-11-18T08:07:03;19.07;;;11.20;;
12145;SDS011;6136;47.032;15.398;2022-11-18T08:09:32;21.30;;;11.10;;
12145;SDS011;6136;47.032;15.398;2022-11-18T08:12:00;21.33;;;11.03;;
12145;SDS011;6136;47.032;15.398;2022-11-18T08:14:28;20.03;;;10.67;;
12145;SDS011;6136;47.032;15.398;2022-11-18T08:16:56;18.10;;;11.50;;
12145;SDS011;6136;47.032;15.398;2022-11-18T08:19:24;18.93;;;10.53;;
12145;SDS011;6136;47.032;15.398;2022-11-18T08:21:54;17.80;;;10.70;;
12145;SDS011;6136;47.032;15.398;2022-11-18T08:24:22;20.07;;;10.10;;
12145;SDS011;6136;47.032;15.398;2022-11-18T08:26:50;16.37;;;10.27;;
12145;SDS011;6136;47.032;15.398;2022-11-18T08:29:18;15.70;;;9.30;;
12145;SDS011;6136;47.032;15.398;2022-11-18T08:31:50;16.73;;;8.63;;
12145;SDS011;6136;47.032;15.398;2022-11-18T08:34:18;14.87;;;8.93;;
12145;SDS011;6136;47.032;15.398;2022-11-18T08:36:46;12.87;;;9.27;;
12145;SDS011;6136;47.032;15.398;2022-11-18T08:39:16;13.70;;;9.70;;
12145;SDS011;6136;47.032;15.398;2022-11-18T08:41:44;15.97;;;9.27;;
12145;SDS011;6136;47.032;15.398;2022-11-18T08:44:13;18.37;;;9.13;;
12145;SDS011;6136;47.032;15.398;2022-11-18T08:46:43;15.70;;;9.90;;
12145;SDS011;6136;47.032;15.398;2022-11-18T08:49:11;13.37;;;9.10;;
12145;SDS011;6136;47.032;15.398;2022-11-18T08:51:39;11.67;;;8.37;;
12145;SDS011;6136;47.032;15.398;2022-11-18T08:54:08;13.40;;;9.17;;
12145;SDS011;6136;47.032;15.398;2022-11-18T08:56:37;14.33;;;9.33;;
12145;SDS011;6136;47.032;15.398;2022-11-18T08:59:05;16.53;;;9.87;;
12145;SDS011;6136;47.032;15.398;2022-11-18T09:01:34;13.80;;;9.07;;
12145;SDS011;6136;47.032;15.398;2022-11-18T09:04:03;14.80;;;9.17;;
12145;SDS011;6136;47.032;15.398;2022-11-18T09:06:31;15.13;;;9.00;;
12145;SDS011;6136;47.032;15.398;2022-11-18T09:09:00;17.00;;;10.30;;
12145;SDS011;6136;47.032;15.398;2022-11-18T09:11:31;16.83;;;9.47;;
12145;SDS011;6136;47.032;15.398;2022-11-18T09:14:01;14.60;;;9.73;;
12145;SDS011;6136;47.032;15.398;2022-11-18T09:16:50;16.13;;;10.30;;
12145;SDS011;6136;47.032;15.398;2022-11-18T09:19:18;16.53;;;9.97;;
12145;SDS011;6136;47.032;15.398;2022-11-18T09:22:06;12.40;;;8.13;;
12145;SDS011;6136;47.032;15.398;2022-11-18T09:24:35;17.13;;;9.23;;
12145;SDS011;6136;47.032;15.398;2022-11-18T09:27:04;15.67;;;9.67;;
12145;SDS011;6136;47.032;15.398;2022-11-18T09:29:40;13.97;;;9.73;;
12145;SDS011;6136;47.032;15.398;2022-11-18T09:32:08;14.70;;;9.67;;
12145;SDS011;6136;47.032;15.398;2022-11-18T09:34:36;15.90;;;9.93;;
12145;SDS011;6136;47.032;15.398;2022-11-18T09:37:04;15.63;;;10.13;;
12145;SDS011;6136;47.032;15.398;2022-11-18T09:39:33;14.50;;;9.27;;
12145;SDS011;6136;47.032;15.398;2022-11-18T09:42:06;16.80;;;10.27;;
12145;SDS011;6136;47.032;15.398;2022-11-18T09:45:07;16.80;;;10.77;;
12145;SDS011;6136;47.032;15.398;2022-11-18T09:47:47;16.20;;;10.10;;
12145;SDS011;6136;47.032;15.398;2022-11-18T09:50:16;14.67;;;9.60;;
12145;SDS011;6136;47.032;15.398;2022-11-18T09:53:09;20.23;;;11.30;;
12145;SDS011;6136;47.032;15.398;2022-11-18T09:55:44;13.97;;;9.90;;
12145;SDS011;6136;47.032;15.398;2022-11-18T09:58:14;15.53;;;9.73;;
12145;SDS011;6136;47.032;15.398;2022-11-18T10:00:49;15.43;;;9.50;;
12145;SDS011;6136;47.032;15.398;2022-11-18T10:03:20;20.13;;;10.27;;
12145;SDS011;6136;47.032;15.398;2022-11-18T10:05:54;17.17;;;10.83;;
12145;SDS011;6136;47.032;15.398;2022-11-18T10:08:26;18.60;;;9.47;;
12145;SDS011;6136;47.032;15.398;2022-11-18T10:10:59;16.63;;;10.80;;
12145;SDS011;6136;47.032;15.398;2022-11-18T10:13:38;14.77;;;10.80;;
12145;SDS011;6136;47.032;15.398;2022-11-18T10:16:21;15.33;;;9.73;;
12145;SDS011;6136;47.032;15.398;2022-11-18T10:19:00;20.43;;;12.23;;
12145;SDS011;6136;47.032;15.398;2022-11-18T10:21:41;19.97;;;11.90;;
12145;SDS011;6136;47.032;15.398;2022-11-18T10:24:21;19.03;;;12.17;;
12145;SDS011;6136;47.032;15.398;2022-11-18T10:26:53;17.03;;;10.27;;
12145;SDS011;6136;47.032;15.398;2022-11-18T10:29:22;16.13;;;10.57;;
12145;SDS011;6136;47.032;15.398;2022-11-18T10:31:54;17.67;;;10.20;;
12145;SDS011;6136;47.032;15.398;2022-11-18T10:34:29;15.43;;;9.33;;
12145;SDS011;6136;47.032;15.398;2022-11-18T10:36:59;18.20;;;9.93;;
12145;SDS011;6136;47.032;15.398;2022-11-18T10:39:29;12.73;;;8.43;;
12145;SDS011;6136;47.032;15.398;2022-11-18T10:41:59;13.43;;;8.33;;
12145;SDS011;6136;47.032;15.398;2022-11-18T10:44:31;12.07;;;8.77;;
12145;SDS011;6136;47.032;15.398;2022-11-18T10:47:19;11.50;;;7.70;;
12145;SDS011;6136;47.032;15.398;2022-11-18T10:49:50;11.30;;;7.57;;
12145;SDS011;6136;47.032;15.398;2022-11-18T10:52:19;9.63;;;7.10;;
12145;SDS011;6136;47.032;15.398;2022-11-18T10:57:56;13.53;;;8.70;;
12145;SDS011;6136;47.032;15.398;2022-11-18T11:00:34;15.47;;;8.73;;
12145;SDS011;6136;47.032;15.398;2022-11-18T11:03:22;17.37;;;9.33;;
12145;SDS011;6136;47.032;15.398;2022-11-18T11:08:59;13.73;;;9.40;;
12145;SDS011;6136;47.032;15.398;2022-11-18T11:11:30;14.33;;;9.47;;
12145;SDS011;6136;47.032;15.398;2022-11-18T11:14:09;12.00;;;8.20;;
12145;SDS011;6136;47.032;15.398;2022-11-18T11:16:44;17.53;;;9.97;;
12145;SDS011;6136;47.032;15.398;2022-11-18T11:19:20;17.03;;;9.63;;
12145;SDS011;6136;47.032;15.398;2022-11-18T11:21:51;16.63;;;9.93;;
12145;SDS011;6136;47.032;15.398;2022-11-18T11:24:20;18.73;;;10.17;;
12145;SDS011;6136;47.032;15.398;2022-11-18T11:26:53;15.33;;;10.03;;
12145;SDS011;6136;47.032;15.398;2022-11-18T11:29:57;14.63;;;9.07;;
12145;SDS011;6136;47.032;15.398;2022-11-18T11:32:40;15.13;;;9.50;;
12145;SDS011;6136;47.032;15.398;2022-11-18T11:35:29;16.13;;;9.43;;
12145;SDS011;6136;47.032;15.398;2022-11-18T11:38:03;15.97;;;9.90;;
12145;SDS011;6136;47.032;15.398;2022-11-18T11:40:40;14.40;;;8.53;;
12145;SDS011;6136;47.032;15.398;2022-11-18T11:43:23;12.60;;;8.03;;
12145;SDS011;6136;47.032;15.398;2022-11-18T11:48:59;13.07;;;8.70;;
12145;SDS011;6136;47.032;15.398;2022-11-18T11:51:43;14.93;;;9.90;;
12145;SDS011;6136;47.032;15.398;2022-11-18T11:54:21;16.60;;;9.30;;
12145;SDS011;6136;47.032;15.398;2022-11-18T11:56:57;14.73;;;10.03;;
12145;SDS011;6136;47.032;15.398;2022-11-18T11:59:31;16.30;;;10.53;;
12145;SDS011;6136;47.032;15.398;2022-11-18T12:05:02;13.97;;;9.47;;
12145;SDS011;6136;47.032;15.398;2022-11-18T12:07:44;14.30;;;8.93;;
12145;SDS011;6136;47.032;15.398;2022-11-18T12:10:19;15.07;;;9.90;;
12145;SDS011;6136;47.032;15.398;2022-11-18T12:13:04;14.03;;;9.33;;
12145;SDS011;6136;47.032;15.398;2022-11-18T12:15:47;15.03;;;9.80;;
12145;SDS011;6136;47.032;15.398;2022-11-18T12:18:23;15.87;;;9.23;;
12145;SDS011;6136;47.032;15.398;2022-11-18T12:20:57;12.93;;;9.73;;
12145;SDS011;6136;47.032;15.398;2022-11-18T12:23:26;11.40;;;9.13;;
12145;SDS011;6136;47.032;15.398;2022-11-18T12:25:57;19.43;;;9.23;;
12145;SDS011;6136;47.032;15.398;2022-11-18T12:28:28;12.90;;;8.87;;
12145;SDS011;6136;47.032;15.398;2022-11-18T12:34:25;14.83;;;9.33;;
12145;SDS011;6136;47.032;15.398;2022-11-18T12:40:12;12.80;;;8.73;;
12145;SDS011;6136;47.032;15.398;2022-11-18T12:43:02;14.50;;;9.33;;
12145;SDS011;6136;47.032;15.398;2022-11-18T12:45:49;17.27;;;10.53;;
12145;SDS011;6136;47.032;15.398;2022-11-18T12:48:27;14.60;;;10.50;;
12145;SDS011;6136;47.032;15.398;2022-11-18T12:57:02;13.67;;;9.03;;
12145;SDS011;6136;47.032;15.398;2022-11-18T12:59:39;14.80;;;9.10;;
12145;SDS011;6136;47.032;15.398;2022-11-18T13:02:19;16.77;;;9.30;;
12145;SDS011;6136;47.032;15.398;2022-11-18T13:05:05;14.53;;;9.27;;
12145;SDS011;6136;47.032;15.398;2022-11-18T13:07:38;10.57;;;7.73;;
12145;SDS011;6136;47.032;15.398;2022-11-18T13:10:28;13.53;;;9.53;;
12145;SDS011;6136;47.032;15.398;2022-11-18T13:13:00;13.53;;;8.00;;
12145;SDS011;6136;47.032;15.398;2022-11-18T13:15:29;13.30;;;9.57;;
12145;SDS011;6136;47.032;15.398;2022-11-18T13:18:16;13.70;;;8.27;;
12145;SDS011;6136;47.032;15.398;2022-11-18T13:20:53;14.73;;;7.43;;
12145;SDS011;6136;47.032;15.398;2022-11-18T13:23:24;11.80;;;8.17;;
12145;SDS011;6136;47.032;15.398;2022-11-18T13:26:27;11.50;;;7.80;;
12145;SDS011;6136;47.032;15.398;2022-11-18T13:32:11;12.07;;;8.40;;
12145;SDS011;6136;47.032;15.398;2022-11-18T13:34:47;11.60;;;8.03;;
12145;SDS011;6136;47.032;15.398;2022-11-18T13:37:18;10.53;;;7.30;;
12145;SDS011;6136;47.032;15.398;2022-11-18T13:39:48;10.70;;;7.73;;
12145;SDS011;6136;47.032;15.398;2022-11-18T13:42:18;9.97;;;6.50;;
12145;SDS011;6136;47.032;15.398;2022-11-18T13:44:53;9.47;;;6.43;;
12145;SDS011;6136;47.032;15.398;2022-11-18T13:47:25;9.73;;;5.93;;
12145;SDS011;6136;47.032;15.398;2022-11-18T13:50:10;9.97;;;6.17;;
12145;SDS011;6136;47.032;15.398;2022-11-18T13:52:44;7.53;;;6.07;;
12145;SDS011;6136;47.032;15.398;2022-11-18T13:55:19;13.33;;;5.60;;
12145;SDS011;6136;47.032;15.398;2022-11-18T13:57:49;7.70;;;5.73;;
12145;SDS011;6136;47.032;15.398;2022-11-18T14:00:21;11.23;;;6.33;;
12145;SDS011;6136;47.032;15.398;2022-11-18T14:02:55;8.47;;;6.03;;
12145;SDS011;6136;47.032;15.398;2022-11-18T14:05:26;9.73;;;6.17;;
12145;SDS011;6136;47.032;15.398;2022-11-18T14:07:59;9.80;;;6.50;;
12145;SDS011;6136;47.032;15.398;2022-11-18T14:10:31;9.93;;;7.13;;
12145;SDS011;6136;47.032;15.398;2022-11-18T14:13:17;8.23;;;5.43;;
12145;SDS011;6136;47.032;15.398;2022-11-18T14:19:05;8.60;;;5.17;;
12145;SDS011;6136;47.032;15.398;2022-11-18T14:21:34;8.33;;;5.33;;
12145;SDS011;6136;47.032;15.398;2022-11-18T14:24:04;8.40;;;5.17;;
12145;SDS011;6136;47.032;15.398;2022-11-18T14:26:33;8.33;;;5.27;;
12145;SDS011;6136;47.032;15.398;2022-11-18T14:29:13;5.77;;;5.17;;
12145;SDS011;6136;47.032;15.398;2022-11-18T14:32:01;11.83;;;7.37;;
12145;SDS011;6136;47.032;15.398;2022-11-18T14:34:32;10.27;;;6.93;;
12145;SDS011;6136;47.032;15.398;2022-11-18T14:37:00;10.43;;;6.27;;
12145;SDS011;6136;47.032;15.398;2022-11-18T14:39:30;9.97;;;6.60;;
12145;SDS011;6136;47.032;15.398;2022-11-18T14:41:59;10.33;;;6.60;;
12145;SDS011;6136;47.032;15.398;2022-11-18T14:44:27;9.03;;;6.53;;
12145;SDS011;6136;47.032;15.398;2022-11-18T14:46:56;11.07;;;6.83;;
12145;SDS011;6136;47.032;15.398;2022-11-18T14:49:26;9.97;;;6.90;;
12145;SDS011;6136;47.032;15.398;2022-11-18T14:51:58;10.67;;;7.67;;
12145;SDS011;6136;47.032;15.398;2022-11-18T14:54:28;9.40;;;7.60;;
12145;SDS011;6136;47.032;15.398;2022-11-18T14:56:57;12.53;;;7.07;;
12145;SDS011;6136;47.032;15.398;2022-11-18T14:59:27;17.47;;;7.63;;
12145;SDS011;6136;47.032;15.398;2022-11-18T15:01:56;9.87;;;7.00;;
12145;SDS011;6136;47.032;15.398;2022-11-18T15:04:25;11.63;;;7.33;;
12145;SDS011;6136;47.032;15.398;2022-11-18T15:06:53;11.77;;;7.53;;
12145;SDS011;6136;47.032;15.398;2022-11-18T15:09:23;10.87;;;7.73;;
12145;SDS011;6136;47.032;15.398;2022-11-18T15:11:51;12.67;;;7.03;;
12145;SDS011;6136;47.032;15.398;2022-11-18T15:14:19;11.43;;;7.93;;
12145;SDS011;6136;47.032;15.398;2022-11-18T15:16:47;10.30;;;7.63;;
12145;SDS011;6136;47.032;15.398;2022-11-18T15:19:15;9.37;;;7.00;;
12145;SDS011;6136;47.032;15.398;2022-11-18T15:21:43;11.07;;;7.73;;
12145;SDS011;6136;47.032;15.398;2022-11-18T15:24:11;9.90;;;7.33;;
12145;SDS011;6136;47.032;15.398;2022-11-18T15:26:41;12.87;;;7.90;;
12145;SDS011;6136;47.032;15.398;2022-11-18T15:29:13;12.27;;;8.17;;
12145;SDS011;6136;47.032;15.398;2022-11-18T15:31:43;11.10;;;7.83;;
12145;SDS011;6136;47.032;15.398;2022-11-18T15:34:14;11.57;;;7.83;;
12145;SDS011;6136;47.032;15.398;2022-11-18T15:36:46;12.63;;;7.90;;